sensor_id;sensor_type;location;lat;lon;timestamp;pressure;altitude;pressure_sealevel;temperature;humidity
39051;BME280;24805;55.852;37.644;2024-01-16T00:01:30;96934.28;;;0.87;70.84
39051;BME280;24805;55.852;37.644;2024-01-16T00:06:33;96924.19;;;0.84;71.02
39051;BME280;24805;55.852;37.644;2024-01-16T00:11:44;96945.00;;;0.92;71.09
39051;BME280;24805;55.852;37.644;2024-01-16T00:16:46;96924.19;;;1.14;70.47
39051;BME280;24805;55.852;37.644;2024-01-16T00:21:49;96926.91;;;0.91;70.61
39051;BME280;24805;55.852;37.644;2024-01-16T00:26:53;96934.56;;;0.92;70.71
39051;BME280;24805;55.852;37.644;2024-01-16T00:31:55;96935.53;;;0.91;70.42
39051;BME280;24805;55.852;37.644;2024-01-16T00:36:58;96921.69;;;0.91;70.83
39051;BME280;24805;55.852;37.644;2024-01-16T00:42:03;96925.09;;;0.91;70.98
39051;BME280;24805;55.852;37.644;2024-01-16T00:47:06;96935.00;;;0.96;70.49
39051;BME280;24805;55.852;37.644;2024-01-16T00:52:09;96929.50;;;0.91;70.74
39051;BME280;24805;55.852;37.644;2024-01-16T00:57:11;96922.84;;;0.88;70.90
39051;BME280;24805;55.852;37.644;2024-01-16T01:02:14;96936.34;;;0.92;70.69
39051;BME280;24805;55.852;37.644;2024-01-16T01:07:17;96931.66;;;0.87;70.75
39051;BME280;24805;55.852;37.644;2024-01-16T01:12:19;96926.34;;;0.81;70.75
39051;BME280;24805;55.852;37.644;2024-01-16T01:17:21;96920.94;;;0.82;70.59
39051;BME280;24805;55.852;37.644;2024-01-16T01:22:24;96909.50;;;0.83;70.39
39051;BME280;24805;55.852;37.644;2024-01-16T01:27:26;96918.72;;;0.79;70.41
39051;BME280;24805;55.852;37.644;2024-01-16T01:32:29;96909.63;;;0.75;70.56
39051;BME280;24805;55.852;37.644;2024-01-16T01:37:31;96911.31;;;0.83;70.23
39051;BME280;24805;55.852;37.644;2024-01-16T01:42:33;96913.50;;;0.79;70.59
39051;BME280;24805;55.852;37.644;2024-01-16T01:47:37;96902.84;;;0.81;70.47
39051;BME280;24805;55.852;37.644;2024-01-16T01:52:40;96913.28;;;0.81;70.62
39051;BME280;24805;55.852;37.644;2024-01-16T01:57:43;96903.66;;;0.81;70.50
39051;BME280;24805;55.852;37.644;2024-01-16T02:02:45;96908.69;;;0.83;70.65
39051;BME280;24805;55.852;37.644;2024-01-16T02:07:48;96916.72;;;0.81;70.27
39051;BME280;24805;55.852;37.644;2024-01-16T02:12:51;96918.25;;;0.76;70.58
39051;BME280;24805;55.852;37.644;2024-01-16T02:17:53;96911.50;;;0.81;70.06
39051;BME280;24805;55.852;37.644;2024-01-16T02:22:57;96905.91;;;0.84;70.21
39051;BME280;24805;55.852;37.644;2024-01-16T02:28:02;96912.88;;;0.77;70.11
39051;BME280;24805;55.852;37.644;2024-01-16T02:33:05;96913.50;;;0.79;70.57
39051;BME280;24805;55.852;37.644;2024-01-16T02:38:07;96916.72;;;0.81;69.96
39051;BME280;24805;55.852;37.644;2024-01-16T02:43:10;96917.69;;;0.80;70.19
39051;BME280;24805;55.852;37.644;2024-01-16T02:48:12;96921.94;;;0.81;70.27
39051;BME280;24805;55.852;37.644;2024-01-16T02:53:15;96919.31;;;0.81;70.20
39051;BME280;24805;55.852;37.644;2024-01-16T02:58:17;96936.34;;;0.77;70.42
39051;BME280;24805;55.852;37.644;2024-01-16T03:03:20;96918.91;;;0.78;70.50
39051;BME280;24805;55.852;37.644;2024-01-16T03:08:22;96942.22;;;0.79;70.30
39051;BME280;24805;55.852;37.644;2024-01-16T03:13:24;96937.97;;;0.78;70.49
39051;BME280;24805;55.852;37.644;2024-01-16T03:18:27;96935.53;;;0.77;70.07
39051;BME280;24805;55.852;37.644;2024-01-16T03:23:29;96945.16;;;0.76;70.16
39051;BME280;24805;55.852;37.644;2024-01-16T03:28:32;96933.56;;;0.79;70.20
39051;BME280;24805;55.852;37.644;2024-01-16T03:33:34;96926.16;;;0.82;69.87
39051;BME280;24805;55.852;37.644;2024-01-16T03:38:37;96932.94;;;0.77;69.74
39051;BME280;24805;55.852;37.644;2024-01-16T03:43:40;96929.88;;;0.73;70.13
39051;BME280;24805;55.852;37.644;2024-01-16T03:48:42;96930.16;;;0.78;70.31
39051;BME280;24805;55.852;37.644;2024-01-16T03:53:45;96920.50;;;0.79;70.10
39051;BME280;24805;55.852;37.644;2024-01-16T03:58:47;96922.50;;;0.77;70.18
39051;BME280;24805;55.852;37.644;2024-01-16T04:03:50;96934.09;;;0.74;69.67
39051;BME280;24805;55.852;37.644;2024-01-16T04:08:52;96959.56;;;0.72;69.96
39051;BME280;24805;55.852;37.644;2024-01-16T04:13:54;96939.22;;;0.67;70.24
39051;BME280;24805;55.852;37.644;2024-01-16T04:18:57;96943.25;;;0.70;69.88
39051;BME280;24805;55.852;37.644;2024-01-16T04:23:59;96911.78;;;0.57;69.84
39051;BME280;24805;55.852;37.644;2024-01-16T04:29:01;96942.00;;;0.66;69.63
39051;BME280;24805;55.852;37.644;2024-01-16T04:34:04;96929.13;;;0.64;69.19
39051;BME280;24805;55.852;37.644;2024-01-16T04:39:06;96927.78;;;0.68;69.67
39051;BME280;24805;55.852;37.644;2024-01-16T04:44:08;96937.94;;;0.63;70.05
39051;BME280;24805;55.852;37.644;2024-01-16T04:49:11;96971.78;;;0.57;69.93
39051;BME280;24805;55.852;37.644;2024-01-16T04:54:13;96942.09;;;0.58;69.73
39051;BME280;24805;55.852;37.644;2024-01-16T04:59:15;96944.59;;;0.51;69.66
39051;BME280;24805;55.852;37.644;2024-01-16T05:04:18;96948.81;;;0.52;69.27
39051;BME280;24805;55.852;37.644;2024-01-16T05:09:20;96953.56;;;0.49;69.38
39051;BME280;24805;55.852;37.644;2024-01-16T05:14:23;96961.56;;;0.47;69.67
39051;BME280;24805;55.852;37.644;2024-01-16T05:19:27;96970.22;;;0.48;69.33
39051;BME280;24805;55.852;37.644;2024-01-16T05:24:29;96955.03;;;0.51;69.56
39051;BME280;24805;55.852;37.644;2024-01-16T05:29:31;96959.88;;;0.54;69.22
39051;BME280;24805;55.852;37.644;2024-01-16T05:34:34;96976.69;;;0.52;69.50
39051;BME280;24805;55.852;37.644;2024-01-16T05:39:36;96970.31;;;0.54;69.26
39051;BME280;24805;55.852;37.644;2024-01-16T05:44:39;96943.59;;;0.52;69.54
39051;BME280;24805;55.852;37.644;2024-01-16T05:49:41;96950.63;;;0.52;69.00
39051;BME280;24805;55.852;37.644;2024-01-16T05:54:45;96942.78;;;0.52;69.09
39051;BME280;24805;55.852;37.644;2024-01-16T05:59:47;96954.84;;;0.53;69.02
39051;BME280;24805;55.852;37.644;2024-01-16T06:04:49;96950.78;;;0.50;68.94
39051;BME280;24805;55.852;37.644;2024-01-16T06:09:52;96951.06;;;0.55;68.78
39051;BME280;24805;55.852;37.644;2024-01-16T06:14:54;96949.97;;;0.50;69.38
39051;BME280;24805;55.852;37.644;2024-01-16T06:19:57;96961.75;;;0.46;68.99
39051;BME280;24805;55.852;37.644;2024-01-16T06:24:59;96981.97;;;0.44;69.28
39051;BME280;24805;55.852;37.644;2024-01-16T06:30:01;96988.19;;;0.43;69.13
39051;BME280;24805;55.852;37.644;2024-01-16T06:35:06;96976.66;;;0.37;69.37
39051;BME280;24805;55.852;37.644;2024-01-16T06:40:10;96964.44;;;0.38;69.33
39051;BME280;24805;55.852;37.644;2024-01-16T06:45:12;96974.22;;;0.36;69.29
39051;BME280;24805;55.852;37.644;2024-01-16T06:50:15;96983.34;;;0.40;69.24
39051;BME280;24805;55.852;37.644;2024-01-16T06:55:17;96993.03;;;0.46;69.00
39051;BME280;24805;55.852;37.644;2024-01-16T07:00:20;96984.25;;;0.47;69.00
39051;BME280;24805;55.852;37.644;2024-01-16T07:05:24;96971.72;;;0.42;68.86
39051;BME280;24805;55.852;37.644;2024-01-16T07:10:27;96977.09;;;0.41;69.07
39051;BME280;24805;55.852;37.644;2024-01-16T07:15:29;96975.69;;;0.38;68.66
39051;BME280;24805;55.852;37.644;2024-01-16T07:20:31;96988.34;;;0.41;68.81
39051;BME280;24805;55.852;37.644;2024-01-16T07:25:34;97000.97;;;0.38;69.41
39051;BME280;24805;55.852;37.644;2024-01-16T07:30:36;96987.53;;;0.41;69.02
39051;BME280;24805;55.852;37.644;2024-01-16T07:35:38;96978.56;;;0.43;69.46
39051;BME280;24805;55.852;37.644;2024-01-16T07:40:43;96978.31;;;0.53;68.62
39051;BME280;24805;55.852;37.644;2024-01-16T07:45:45;96993.22;;;0.44;68.85
39051;BME280;24805;55.852;37.644;2024-01-16T07:50:47;96998.69;;;0.34;68.53
39051;BME280;24805;55.852;37.644;2024-01-16T07:55:50;97000.19;;;0.29;68.64
39051;BME280;24805;55.852;37.644;2024-01-16T08:00:52;96960.25;;;0.28;68.55
39051;BME280;24805;55.852;37.644;2024-01-16T08:05:55;96971.03;;;0.25;68.01
39051;BME280;24805;55.852;37.644;2024-01-16T08:10:58;96963.22;;;0.25;69.05
39051;BME280;24805;55.852;37.644;2024-01-16T08:16:01;96967.41;;;0.34;68.23
39051;BME280;24805;55.852;37.644;2024-01-16T08:21:03;96931.06;;;0.33;68.48
39051;BME280;24805;55.852;37.644;2024-01-16T08:26:06;96946.03;;;0.54;67.94
39051;BME280;24805;55.852;37.644;2024-01-16T08:31:08;96951.44;;;0.67;68.41
39051;BME280;24805;55.852;37.644;2024-01-16T08:36:10;96926.25;;;0.59;67.28
39051;BME280;24805;55.852;37.644;2024-01-16T08:41:13;96930.97;;;0.79;66.89
39051;BME280;24805;55.852;37.644;2024-01-16T08:46:15;96935.88;;;1.03;68.00
39051;BME280;24805;55.852;37.644;2024-01-16T08:51:18;96947.97;;;1.19;66.23
39051;BME280;24805;55.852;37.644;2024-01-16T08:56:20;96951.66;;;1.10;66.27
39051;BME280;24805;55.852;37.644;2024-01-16T09:01:22;96936.34;;;1.36;68.06
39051;BME280;24805;55.852;37.644;2024-01-16T09:06:25;96928.94;;;1.76;66.85
39051;BME280;24805;55.852;37.644;2024-01-16T09:11:28;96909.53;;;1.85;66.50
39051;BME280;24805;55.852;37.644;2024-01-16T09:16:30;96941.78;;;2.13;65.30
39051;BME280;24805;55.852;37.644;2024-01-16T09:21:32;96934.78;;;2.20;64.76
39051;BME280;24805;55.852;37.644;2024-01-16T09:26:35;96917.09;;;2.22;64.71
39051;BME280;24805;55.852;37.644;2024-01-16T09:31:38;96930.19;;;2.22;64.33
39051;BME280;24805;55.852;37.644;2024-01-16T09:36:40;96914.69;;;2.21;64.90
39051;BME280;24805;55.852;37.644;2024-01-16T09:41:44;96919.09;;;2.20;64.27
39051;BME280;24805;55.852;37.644;2024-01-16T09:46:47;96905.25;;;2.20;64.80
39051;BME280;24805;55.852;37.644;2024-01-16T09:51:51;96920.13;;;2.19;64.28
39051;BME280;24805;55.852;37.644;2024-01-16T09:56:58;96902.84;;;2.25;64.66
39051;BME280;24805;55.852;37.644;2024-01-16T10:02:01;96918.06;;;2.15;64.26
39051;BME280;24805;55.852;37.644;2024-01-16T10:07:08;96911.78;;;1.88;64.01
39051;BME280;24805;55.852;37.644;2024-01-16T10:12:12;96906.47;;;1.81;64.61
39051;BME280;24805;55.852;37.644;2024-01-16T10:17:15;96900.13;;;1.90;63.24
39051;BME280;24805;55.852;37.644;2024-01-16T10:22:21;96888.78;;;2.04;63.03
39051;BME280;24805;55.852;37.644;2024-01-16T10:27:27;96893.97;;;1.98;63.39
39051;BME280;24805;55.852;37.644;2024-01-16T10:32:37;96883.44;;;2.13;63.92
39051;BME280;24805;55.852;37.644;2024-01-16T10:37:57;96885.63;;;2.09;63.86
39051;BME280;24805;55.852;37.644;2024-01-16T10:43:02;96877.06;;;2.22;63.47
39051;BME280;24805;55.852;37.644;2024-01-16T10:48:06;96862.97;;;2.23;63.57
39051;BME280;24805;55.852;37.644;2024-01-16T10:53:11;96867.00;;;2.19;63.35
39051;BME280;24805;55.852;37.644;2024-01-16T10:58:22;96854.75;;;1.98;62.22
39051;BME280;24805;55.852;37.644;2024-01-16T11:03:49;96855.88;;;1.89;62.41
39051;BME280;24805;55.852;37.644;2024-01-16T11:08:56;96853.88;;;1.69;62.01
39051;BME280;24805;55.852;37.644;2024-01-16T11:14:00;96851.50;;;1.53;62.77
39051;BME280;24805;55.852;37.644;2024-01-16T11:19:08;96850.34;;;1.56;61.78
39051;BME280;24805;55.852;37.644;2024-01-16T11:24:30;96849.00;;;1.45;62.59
39051;BME280;24805;55.852;37.644;2024-01-16T11:39:44;96836.69;;;1.03;62.30
39051;BME280;24805;55.852;37.644;2024-01-16T11:44:48;96841.66;;;0.98;61.94
39051;BME280;24805;55.852;37.644;2024-01-16T11:50:12;96833.81;;;0.98;61.37
39051;BME280;24805;55.852;37.644;2024-01-16T12:00:45;96830.22;;;0.84;61.90
39051;BME280;24805;55.852;37.644;2024-01-16T12:06:01;96818.00;;;0.85;61.34
39051;BME280;24805;55.852;37.644;2024-01-16T12:11:09;96817.19;;;0.69;62.13
39051;BME280;24805;55.852;37.644;2024-01-16T12:16:12;96810.72;;;0.65;61.77
39051;BME280;24805;55.852;37.644;2024-01-16T12:21:14;96804.69;;;0.65;61.73
39051;BME280;24805;55.852;37.644;2024-01-16T12:26:21;96803.97;;;0.71;61.47
39051;BME280;24805;55.852;37.644;2024-01-16T12:31:27;96792.91;;;0.69;62.28
39051;BME280;24805;55.852;37.644;2024-01-16T12:36:29;96802.06;;;0.65;61.60
39051;BME280;24805;55.852;37.644;2024-01-16T12:41:43;96812.16;;;0.68;61.09
39051;BME280;24805;55.852;37.644;2024-01-16T12:46:54;96806.44;;;0.58;61.55
39051;BME280;24805;55.852;37.644;2024-01-16T12:52:18;96784.56;;;0.44;61.23
39051;BME280;24805;55.852;37.644;2024-01-16T12:57:22;96805.78;;;0.41;61.45
39051;BME280;24805;55.852;37.644;2024-01-16T13:02:25;96809.94;;;0.36;61.32
39051;BME280;24805;55.852;37.644;2024-01-16T13:07:28;96789.31;;;0.26;61.39
39051;BME280;24805;55.852;37.644;2024-01-16T13:12:33;96798.75;;;0.27;61.54
39051;BME280;24805;55.852;37.644;2024-01-16T13:17:36;96781.84;;;0.23;61.82
39051;BME280;24805;55.852;37.644;2024-01-16T13:22:39;96790.06;;;0.20;60.90
39051;BME280;24805;55.852;37.644;2024-01-16T13:27:48;96778.53;;;0.14;62.27
39051;BME280;24805;55.852;37.644;2024-01-16T13:32:50;96789.25;;;0.19;61.31
39051;BME280;24805;55.852;37.644;2024-01-16T13:37:53;96779.41;;;0.21;60.85
39051;BME280;24805;55.852;37.644;2024-01-16T13:42:55;96774.13;;;0.15;59.81
39051;BME280;24805;55.852;37.644;2024-01-16T13:47:58;96771.81;;;0.20;60.91
39051;BME280;24805;55.852;37.644;2024-01-16T13:53:01;96769.19;;;0.20;61.12
39051;BME280;24805;55.852;37.644;2024-01-16T13:58:04;96773.16;;;0.16;59.84
39051;BME280;24805;55.852;37.644;2024-01-16T14:03:06;96779.16;;;0.16;60.73
39051;BME280;24805;55.852;37.644;2024-01-16T14:08:09;96775.19;;;0.20;60.60
39051;BME280;24805;55.852;37.644;2024-01-16T14:13:15;96771.00;;;0.19;60.75
39051;BME280;24805;55.852;37.644;2024-01-16T14:18:17;96776.81;;;0.21;60.48
39051;BME280;24805;55.852;37.644;2024-01-16T14:23:19;96771.41;;;0.23;60.70
39051;BME280;24805;55.852;37.644;2024-01-16T14:28:22;96765.31;;;0.30;61.21
39051;BME280;24805;55.852;37.644;2024-01-16T14:33:31;96747.31;;;0.21;61.00
39051;BME280;24805;55.852;37.644;2024-01-16T14:38:52;96765.66;;;0.27;60.60
39051;BME280;24805;55.852;37.644;2024-01-16T14:43:54;96754.78;;;0.24;60.75
39051;BME280;24805;55.852;37.644;2024-01-16T14:48:57;96750.38;;;0.24;61.29
39051;BME280;24805;55.852;37.644;2024-01-16T14:53:59;96751.66;;;0.28;60.78
39051;BME280;24805;55.852;37.644;2024-01-16T14:59:22;96750.81;;;0.43;61.39
39051;BME280;24805;55.852;37.644;2024-01-16T15:04:25;96746.53;;;0.35;61.39
39051;BME280;24805;55.852;37.644;2024-01-16T15:09:27;96745.53;;;0.36;60.26
39051;BME280;24805;55.852;37.644;2024-01-16T15:14:30;96738.94;;;0.40;61.20
39051;BME280;24805;55.852;37.644;2024-01-16T15:19:32;96741.19;;;0.43;60.23
39051;BME280;24805;55.852;37.644;2024-01-16T15:24:34;96738.41;;;0.45;60.49
39051;BME280;24805;55.852;37.644;2024-01-16T15:29:37;96717.22;;;0.33;61.03
39051;BME280;24805;55.852;37.644;2024-01-16T15:34:40;96740.66;;;0.48;60.72
39051;BME280;24805;55.852;37.644;2024-01-16T15:39:43;96746.31;;;0.51;61.39
39051;BME280;24805;55.852;37.644;2024-01-16T15:44:46;96746.69;;;0.48;60.96
39051;BME280;24805;55.852;37.644;2024-01-16T15:49:49;96736.53;;;0.39;61.14
39051;BME280;24805;55.852;37.644;2024-01-16T15:54:52;96731.13;;;0.40;61.01
39051;BME280;24805;55.852;37.644;2024-01-16T15:59:55;96724.50;;;0.38;61.02
39051;BME280;24805;55.852;37.644;2024-01-16T16:04:58;96728.72;;;0.39;60.66
39051;BME280;24805;55.852;37.644;2024-01-16T16:10:00;96724.84;;;0.34;60.79
39051;BME280;24805;55.852;37.644;2024-01-16T16:15:04;96729.34;;;0.26;60.34
39051;BME280;24805;55.852;37.644;2024-01-16T16:20:08;96724.03;;;0.34;60.10
39051;BME280;24805;55.852;37.644;2024-01-16T16:25:12;96722.59;;;0.31;60.15
39051;BME280;24805;55.852;37.644;2024-01-16T16:30:14;96728.91;;;0.37;60.07
39051;BME280;24805;55.852;37.644;2024-01-16T16:35:17;96720.44;;;0.35;61.11
39051;BME280;24805;55.852;37.644;2024-01-16T16:40:19;96714.41;;;0.34;59.42
39051;BME280;24805;55.852;37.644;2024-01-16T16:45:22;96691.94;;;0.33;60.86
39051;BME280;24805;55.852;37.644;2024-01-16T16:50:25;96698.50;;;0.29;61.34
39051;BME280;24805;55.852;37.644;2024-01-16T16:55:27;96694.09;;;0.30;60.59
39051;BME280;24805;55.852;37.644;2024-01-16T17:00:30;96705.16;;;0.32;60.53
39051;BME280;24805;55.852;37.644;2024-01-16T17:05:32;96699.41;;;0.37;60.71
39051;BME280;24805;55.852;37.644;2024-01-16T17:10:35;96687.97;;;0.38;61.63
39051;BME280;24805;55.852;37.644;2024-01-16T17:15:37;96680.56;;;0.41;61.30
39051;BME280;24805;55.852;37.644;2024-01-16T17:20:41;96682.19;;;0.42;61.22
39051;BME280;24805;55.852;37.644;2024-01-16T17:25:43;96675.38;;;0.41;61.12
39051;BME280;24805;55.852;37.644;2024-01-16T17:30:46;96681.56;;;0.40;60.74
39051;BME280;24805;55.852;37.644;2024-01-16T17:35:49;96682.13;;;0.36;60.67
39051;BME280;24805;55.852;37.644;2024-01-16T17:40:53;96682.22;;;0.27;60.39
39051;BME280;24805;55.852;37.644;2024-01-16T17:45:55;96678.81;;;0.27;61.52
39051;BME280;24805;55.852;37.644;2024-01-16T17:50:57;96679.78;;;0.26;60.84
39051;BME280;24805;55.852;37.644;2024-01-16T17:56:00;96682.34;;;0.19;61.29
39051;BME280;24805;55.852;37.644;2024-01-16T18:01:03;96658.69;;;0.06;61.95
39051;BME280;24805;55.852;37.644;2024-01-16T18:06:08;96685.13;;;0.18;62.41
39051;BME280;24805;55.852;37.644;2024-01-16T18:11:10;96691.50;;;0.15;62.37
39051;BME280;24805;55.852;37.644;2024-01-16T18:16:15;96672.19;;;0.10;62.57
39051;BME280;24805;55.852;37.644;2024-01-16T18:21:19;96684.59;;;0.08;62.41
39051;BME280;24805;55.852;37.644;2024-01-16T18:26:22;96693.50;;;0.13;62.70
39051;BME280;24805;55.852;37.644;2024-01-16T18:31:25;96691.50;;;0.15;63.19
39051;BME280;24805;55.852;37.644;2024-01-16T18:36:28;96695.75;;;0.16;63.18
39051;BME280;24805;55.852;37.644;2024-01-16T18:41:30;96696.56;;;0.17;62.89
39051;BME280;24805;55.852;37.644;2024-01-16T18:46:33;96690.41;;;0.24;63.53
39051;BME280;24805;55.852;37.644;2024-01-16T18:51:37;96687.53;;;0.05;63.58
39051;BME280;24805;55.852;37.644;2024-01-16T18:56:39;96709.84;;;0.07;64.03
39051;BME280;24805;55.852;37.644;2024-01-16T19:01:42;96707.94;;;0.01;63.65
39051;BME280;24805;55.852;37.644;2024-01-16T19:06:46;96709.75;;;0.00;63.78
39051;BME280;24805;55.852;37.644;2024-01-16T19:11:50;96681.81;;;-0.20;64.33
39051;BME280;24805;55.852;37.644;2024-01-16T19:16:55;96716.16;;;-0.02;64.35
39051;BME280;24805;55.852;37.644;2024-01-16T19:21:58;96723.78;;;-0.01;64.25
39051;BME280;24805;55.852;37.644;2024-01-16T19:27:00;96734.47;;;-0.10;63.86
39051;BME280;24805;55.852;37.644;2024-01-16T19:32:03;96737.31;;;-0.20;63.67
39051;BME280;24805;55.852;37.644;2024-01-16T19:37:06;96730.06;;;-0.10;62.96
39051;BME280;24805;55.852;37.644;2024-01-16T19:42:08;96729.59;;;-0.28;63.35
39051;BME280;24805;55.852;37.644;2024-01-16T19:47:11;96762.38;;;-0.33;63.61
39051;BME280;24805;55.852;37.644;2024-01-16T19:52:32;96772.19;;;-0.21;63.23
39051;BME280;24805;55.852;37.644;2024-01-16T19:57:34;96771.97;;;-0.34;63.61
39051;BME280;24805;55.852;37.644;2024-01-16T20:02:37;96778.97;;;-0.35;63.99
39051;BME280;24805;55.852;37.644;2024-01-16T20:07:41;96786.78;;;-0.35;63.87
39051;BME280;24805;55.852;37.644;2024-01-16T20:12:46;96796.88;;;-0.31;63.86
39051;BME280;24805;55.852;37.644;2024-01-16T20:17:50;96794.13;;;-0.38;63.29
39051;BME280;24805;55.852;37.644;2024-01-16T20:22:55;96804.13;;;-0.42;64.17
39051;BME280;24805;55.852;37.644;2024-01-16T20:27:58;96815.88;;;-0.46;64.25
39051;BME280;24805;55.852;37.644;2024-01-16T20:33:05;96817.66;;;-0.46;63.83
39051;BME280;24805;55.852;37.644;2024-01-16T20:38:08;96819.63;;;-0.48;64.29
39051;BME280;24805;55.852;37.644;2024-01-16T20:43:11;96828.72;;;-0.44;63.57
39051;BME280;24805;55.852;37.644;2024-01-16T20:48:13;96842.72;;;-0.45;63.88
39051;BME280;24805;55.852;37.644;2024-01-16T20:53:15;96838.84;;;-0.49;63.28
39051;BME280;24805;55.852;37.644;2024-01-16T20:58:19;96839.19;;;-0.52;63.40
39051;BME280;24805;55.852;37.644;2024-01-16T21:03:21;96839.06;;;-0.59;63.08
39051;BME280;24805;55.852;37.644;2024-01-16T21:08:25;96848.06;;;-0.61;64.05
39051;BME280;24805;55.852;37.644;2024-01-16T21:13:28;96852.84;;;-0.50;63.29
39051;BME280;24805;55.852;37.644;2024-01-16T21:18:31;96855.41;;;-0.42;62.61
39051;BME280;24805;55.852;37.644;2024-01-16T21:23:34;96860.84;;;-0.52;62.39
39051;BME280;24805;55.852;37.644;2024-01-16T21:28:36;96847.97;;;-0.53;62.16
39051;BME280;24805;55.852;37.644;2024-01-16T21:33:39;96846.47;;;-0.71;63.05
39051;BME280;24805;55.852;37.644;2024-01-16T21:38:42;96864.53;;;-0.69;62.98
39051;BME280;24805;55.852;37.644;2024-01-16T21:43:44;96869.22;;;-0.64;62.79
39051;BME280;24805;55.852;37.644;2024-01-16T21:48:46;96868.69;;;-0.60;62.94
39051;BME280;24805;55.852;37.644;2024-01-16T21:53:49;96875.72;;;-0.60;62.42
39051;BME280;24805;55.852;37.644;2024-01-16T21:58:51;96883.72;;;-0.70;62.62
39051;BME280;24805;55.852;37.644;2024-01-16T22:03:54;96886.66;;;-0.73;62.77
39051;BME280;24805;55.852;37.644;2024-01-16T22:08:57;96900.56;;;-0.81;62.22
39051;BME280;24805;55.852;37.644;2024-01-16T22:13:59;96915.44;;;-1.06;59.56
39051;BME280;24805;55.852;37.644;2024-01-16T22:19:02;96913.25;;;-1.33;56.89
39051;BME280;24805;55.852;37.644;2024-01-16T22:24:05;96940.75;;;-1.55;56.89
39051;BME280;24805;55.852;37.644;2024-01-16T22:29:08;96950.22;;;-1.62;57.18
39051;BME280;24805;55.852;37.644;2024-01-16T22:34:10;96958.34;;;-1.81;56.95
39051;BME280;24805;55.852;37.644;2024-01-16T22:39:13;96970.50;;;-2.06;58.03
39051;BME280;24805;55.852;37.644;2024-01-16T22:44:19;96997.44;;;-2.07;57.55
39051;BME280;24805;55.852;37.644;2024-01-16T22:49:24;96976.81;;;-2.09;57.34
39051;BME280;24805;55.852;37.644;2024-01-16T22:54:26;96983.13;;;-2.19;58.11
39051;BME280;24805;55.852;37.644;2024-01-16T22:59:29;96993.78;;;-2.38;56.94
39051;BME280;24805;55.852;37.644;2024-01-16T23:04:31;96993.97;;;-2.32;57.35
39051;BME280;24805;55.852;37.644;2024-01-16T23:09:33;97012.72;;;-2.62;57.45
39051;BME280;24805;55.852;37.644;2024-01-16T23:14:37;97001.69;;;-2.56;57.52
39051;BME280;24805;55.852;37.644;2024-01-16T23:19:39;97022.06;;;-2.69;57.90
39051;BME280;24805;55.852;37.644;2024-01-16T23:24:42;97034.03;;;-2.77;57.87
39051;BME280;24805;55.852;37.644;2024-01-16T23:29:44;97039.00;;;-2.91;58.11
39051;BME280;24805;55.852;37.644;2024-01-16T23:34:47;97050.59;;;-3.03;59.06
39051;BME280;24805;55.852;37.644;2024-01-16T23:39:52;97061.69;;;-2.93;58.59
39051;BME280;24805;55.852;37.644;2024-01-16T23:44:54;97062.28;;;-2.99;58.94
39051;BME280;24805;55.852;37.644;2024-01-16T23:49:59;97050.53;;;-3.12;59.99
39051;BME280;24805;55.852;37.644;2024-01-16T23:55:05;97074.25;;;-3.06;59.56
